Time;durP1;ratioP1;P1;durP2;ratioP2;P2;SDS_P1;SDS_P2;PMS_P1;PMS_P2;Temp;Humidity;BMP_temperature;BMP_pressure;BME280_temperature;BME280_humidity;BME280_pressure;Samples;Min_cycle;Max_cycle;Signal;HPM_P1;HPM_P2
2023/09/17 05:16:56;;;;;;;;;;;;;;;;;;5046336;28;19924;-42
2023/09/17 05:19:22;;;;;;;;;;;;;;;;;;5050766;28;19958;-42
2023/09/17 05:21:49;;;;;;;;;;;;;;;;;;5050821;28;19909;-42
2023/09/17 05:24:16;;;;;;;;;;;;;;;;;;5050103;28;19912;-42
2023/09/17 05:26:42;;;;;;;;;;;;;;;;;;5065139;28;20011;-42
2023/09/17 05:29:10;;;;;;;;;;;;;;;;;;5052832;28;20003;-42
2023/09/17 05:31:36;;;;;;;;;;;;;;;;;;5051537;28;19909;-42
2023/09/17 05:34:03;;;;;;;;;;;;;;;;;;5051683;28;19924;-42
2023/09/17 05:36:30;;;;;;;;;;;;;;;;;;5051486;28;19909;-42
2023/09/17 05:38:57;;;;;;;;;;;;;;;;;;5051523;28;20332;-42
2023/09/17 05:41:23;;;;;;;;;;;;;;;;;;5052024;28;19933;-42
2023/09/17 05:43:48;;;;;;;;;;;;;;;;;;5071024;28;19908;-42
2023/09/17 05:46:14;;;;;;;;;;;;;;;;;;5069832;28;19909;-42
2023/09/17 05:48:40;;;;;;;;;;;;;;;;;;5048985;28;19954;-44
2023/09/17 05:51:07;;;;;;;;;;;;;;;;;;5052167;28;19977;-42
2023/09/17 05:53:33;;;;;;;;;;;;;;;;;;5052521;28;19909;-41
2023/09/17 05:55:59;;;;;;;;;;;;;;;;;;5045493;28;19936;-42
2023/09/17 05:58:25;;;;;;;;;;;;;;;;;;5048452;28;19909;-43
2023/09/17 06:00:53;;;;;;;;;;;;;;;;;;5051134;28;20390;-42
2023/09/17 06:03:19;;;;;;;;;;;;;;;;;;5051014;28;19994;-42
2023/09/17 06:05:44;;;;;;;;;;;;;;;;;;5049881;28;20383;-42
2023/09/17 06:08:11;;;;;;;;;;;;;;;;;;5051011;28;19909;-42
2023/09/17 06:10:36;;;;;;;;;;;;;;;;;;5048190;28;19920;-42
2023/09/17 06:13:02;;;;;;;;;;;;;;;;;;5049520;28;19909;-42
2023/09/17 06:15:28;;;;;;;;;;;;;;;;;;5049404;28;20012;-42
2023/09/17 06:17:54;;;;;;;;;;;;;;;;;;5045614;28;19924;-42
2023/09/17 06:20:20;;;;;;;;;;;;;;;;;;5038545;28;19964;-42
2023/09/17 06:22:48;;;;;;;;;;;;;;;;;;5046828;28;19913;-42
2023/09/17 06:25:13;;;;;;;;;;;;;;;;;;5048771;28;19913;-42
2023/09/17 06:27:39;;;;;;;;;;;;;;;;;;5049932;28;19967;-42
2023/09/17 06:30:05;;;;;;;;;;;;;;;;;;5048412;28;19963;-42
2023/09/17 06:32:31;;;;;;;;;;;;;;;;;;5053930;28;19920;-42
2023/09/17 06:34:57;;;;;;;;;;;;;;;;;;5070584;28;19913;-42
2023/09/17 06:37:23;;;;;;;;;;;;;;;;;;5070843;28;19938;-42
2023/09/17 06:39:49;;;;;;;;;;;;;;;;;;5070254;28;19908;-42
2023/09/17 06:42:15;;;;;;;;;;;;;;;;;;5070353;28;20011;-42
2023/09/17 06:44:41;;;;;;;;;;;;;;;;;;5045211;28;19924;-41
2023/09/17 06:47:07;;;;;;;;;;;;;;;;;;5050584;28;19908;-42
2023/09/17 06:49:34;;;;;;;;;;;;;;;;;;5050522;28;19909;-42
2023/09/17 06:52:00;;;;;;;;;;;;;;;;;;5050342;28;19992;-42
2023/09/17 06:54:25;;;;;;;;;;;;;;;;;;5050361;28;20011;-43
2023/09/17 06:56:52;;;;;;;;;;;;;;;;;;5050322;28;20393;-43
2023/09/17 06:59:18;;;;;;;;;;;;;;;;;;5050460;28;19919;-42
2023/09/17 07:01:45;;;;;;;;;;;;;;;;;;5050251;28;19999;-42
2023/09/17 07:04:11;;;;;;;;;;;;;;;;;;5050258;28;19926;-42
2023/09/17 07:06:37;;;;;;;;;;;;;;;;;;5050543;28;19909;-42
2023/09/17 07:09:03;;;;;;;;;;;;;;;;;;5050283;28;19951;-42
2023/09/17 07:11:29;;;;;;;;;;;;;;;;;;5050366;28;19915;-42
2023/09/17 07:13:56;;;;;;;;;;;;;;;;;;5050158;28;19999;-43
2023/09/17 07:16:23;;;;;;;;;;;;;;;;;;5049160;28;19925;-42
2023/09/17 07:18:49;;;;;;;;;;;;;;;;;;5050077;28;20347;-42
2023/09/17 07:21:15;;;;;;;;;;;;;;;;;;5053759;28;19909;-42
2023/09/17 07:23:42;;;;;;;;;;;;;;;;;;5052044;28;20416;-42
2023/09/17 07:26:09;;;;;;;;;;;;;;;;;;5053953;28;19916;-42
2023/09/17 07:28:35;;;;;;;;;;;;;;;;;;5048983;28;19949;-42
2023/09/17 07:31:00;;;;;;;;;;;;;;;;;;5049379;28;20406;-42
2023/09/17 07:33:26;;;;;;;;;;;;;;;;;;5050152;28;20331;-42
2023/09/17 07:35:52;;;;;;;;;;;;;;;;;;5049455;28;19913;-42
2023/09/17 07:38:18;;;;;;;;;;;;;;;;;;5047611;28;19913;-42
2023/09/17 07:40:45;;;;;;;;;;;;;;;;;;5050601;28;19958;-42
2023/09/17 07:43:11;;;;;;;;;;;;;;;;;;5052336;28;20005;-42
2023/09/17 07:45:37;;;;;;;;;;;;;;;;;;5052141;28;20375;-42
2023/09/17 07:48:06;;;;;;;;;;;;;;;;;;5052137;28;19917;-41
2023/09/17 07:50:32;;;;;;;;;;;;;;;;;;5051868;28;19913;-41
2023/09/17 07:52:58;;;;;;;;;;;;;;;;;;5050827;28;20395;-42
2023/09/17 07:55:24;;;;;;;;;;;;;;;;;;5052021;28;20391;-42
2023/09/17 07:57:51;;;;;;;;;;;;;;;;;;5052158;28;19955;-42
2023/09/17 08:00:17;;;;;;;;;;;;;;;;;;5052417;28;19908;-42
2023/09/17 08:02:44;;;;;;;;;;;;;;;;;;5051944;28;19915;-42
2023/09/17 08:05:10;;;;;;;;;;;;;;;;;;5052164;28;19909;-42
2023/09/17 08:07:36;;;;;;;;;;;;;;;;;;5051894;28;19909;-43
2023/09/17 08:10:03;;;;;;;;;;;;;;;;;;5052321;28;19939;-42
2023/09/17 08:12:30;;;;;;;;;;;;;;;;;;5051879;28;19908;-42
2023/09/17 08:14:56;;;;;;;;;;;;;;;;;;5051918;28;20280;-42
2023/09/17 08:17:22;;;;;;;;;;;;;;;;;;5052075;28;19971;-42
2023/09/17 08:19:48;;;;;;;;;;;;;;;;;;5051582;28;19908;-42
2023/09/17 08:22:14;;;;;;;;;;;;;;;;;;5051659;28;19909;-42
2023/09/17 08:24:40;;;;;;;;;;;;;;;;;;5051784;28;19909;-42
2023/09/17 08:27:06;;;;;;;;;;;;;;;;;;5052002;28;19998;-42
2023/09/17 08:29:33;;;;;;;;;;;;;;;;;;5051800;28;19909;-42
2023/09/17 08:31:59;;;;;;;;;;;;;;;;;;5051507;28;20302;-42
2023/09/17 08:34:25;;;;;;;;;;;;;;;;;;5051158;28;19936;-42
2023/09/17 08:36:51;;;;;;;;;;;;;;;;;;5051425;28;20406;-43
2023/09/17 08:39:17;;;;;;;;;;;;;;;;;;5049634;28;19920;-42
2023/09/17 08:41:43;;;;;;;;;;;;;;;;;;5050958;28;19913;-42
2023/09/17 08:44:09;;;;;;;;;;;;;;;;;;5051396;28;19908;-42
2023/09/17 08:46:35;;;;;;;;;;;;;;;;;;5051536;28;19909;-42
2023/09/17 08:49:03;;;;;;;;;;;;;;;;;;5051176;28;19913;-42
2023/09/17 08:51:30;;;;;;;;;;;;;;;;;;5049933;28;19948;-42
2023/09/17 08:53:55;;;;;;;;;;;;;;;;;;5049549;28;19917;-42
2023/09/17 08:56:21;;;;;;;;;;;;;;;;;;5051321;28;19915;-42
2023/09/17 08:58:47;;;;;;;;;;;;;;;;;;5050784;28;19959;-42
2023/09/17 09:01:13;;;;;;;;;;;;;;;;;;5051100;28;19909;-42
2023/09/17 09:03:39;;;;;;;;;;;;;;;;;;5051503;28;19974;-42
2023/09/17 09:06:06;;;;;;;;;;;;;;;;;;5051032;28;20387;-42
2023/09/17 09:08:32;;;;;;;;;;;;;;;;;;5050781;28;19916;-42
2023/09/17 09:10:58;;;;;;;;;;;;;;;;;;5050969;28;19913;-42
2023/09/17 09:13:24;;;;;;;;;;;;;;;;;;5050655;28;19909;-42
2023/09/17 09:15:50;;;;;;;;;;;;;;;;;;5050643;28;20386;-42
2023/09/17 09:18:15;;;;;;;;;;;;;;;;;;5050655;28;20375;-42
2023/09/17 09:20:42;;;;;;;;;;;;;;;;;;5050922;28;19999;-42
2023/09/17 09:23:08;;;;;;;;;;;;;;;;;;5032578;28;19983;-42
2023/09/17 09:25:33;;;;;;;;;;;;;;;;;;5032631;28;20328;-42
2023/09/17 09:28:00;;;;;;;;;;;;;;;;;;5050582;28;19912;-42
2023/09/17 09:30:26;;;;;;;;;;;;;;;;;;5050270;28;19995;-42
2023/09/17 09:32:52;;;;;;;;;;;;;;;;;;5050345;28;20429;-43
2023/09/17 09:35:17;;;;;;;;;;;;;;;;;;5050077;28;19923;-42
2023/09/17 09:37:43;;;;;;;;;;;;;;;;;;5048593;28;20399;-43
2023/09/17 09:40:09;;;;;;;;;;;;;;;;;;5046214;28;20449;-42
2023/09/17 09:42:35;;;;;;;;;;;;;;;;;;5051048;28;20003;-42
2023/09/17 09:45:01;;;;;;;;;;;;;;;;;;5051183;28;19979;-42
2023/09/17 09:47:27;;;;;;;;;;;;;;;;;;5050183;28;19909;-42
2023/09/17 09:49:53;;;;;;;;;;;;;;;;;;5049403;28;20265;-44
2023/09/17 09:52:19;;;;;;;;;;;;;;;;;;5050188;28;19909;-43
2023/09/17 09:54:45;;;;;;;;;;;;;;;;;;5050270;28;19928;-42
2023/09/17 09:57:11;;;;;;;;;;;;;;;;;;5050635;28;20363;-43
2023/09/17 09:59:37;;;;;;;;;;;;;;;;;;5049659;28;19909;-44
2023/09/17 10:02:03;;;;;;;;;;;;;;;;;;5049508;28;19916;-42
2023/09/17 10:04:29;;;;;;;;;;;;;;;;;;5049758;28;19909;-43
2023/09/17 10:06:56;;;;;;;;;;;;;;;;;;5049760;28;19909;-42
2023/09/17 10:09:22;;;;;;;;;;;;;;;;;;5049568;28;20409;-43
2023/09/17 10:11:48;;;;;;;;;;;;;;;;;;5049670;28;19999;-42
2023/09/17 10:14:14;;;;;;;;;;;;;;;;;;5049843;28;19999;-43
2023/09/17 10:16:40;;;;;;;;;;;;;;;;;;5049503;28;20256;-42
2023/09/17 10:19:06;;;;;;;;;;;;;;;;;;5049465;28;19916;-42
2023/09/17 10:21:33;;;;;;;;;;;;;;;;;;5049613;28;19909;-42
2023/09/17 10:23:59;;;;;;;;;;;;;;;;;;5049404;28;19909;-43
2023/09/17 10:26:31;;;;;;;;;;;;;;;;;;5049552;28;19916;-42
2023/09/17 10:28:57;;;;;;;;;;;;;;;;;;5049292;28;20387;-42
2023/09/17 10:31:23;;;;;;;;;;;;;;;;;;5047762;28;19983;-42
2023/09/17 10:33:50;;;;;;;;;;;;;;;;;;5049295;28;19908;-42
2023/09/17 10:36:15;;;;;;;;;;;;;;;;;;5049649;28;19915;-44
2023/09/17 10:38:41;;;;;;;;;;;;;;;;;;5049405;28;19912;-42
2023/09/17 10:41:08;;;;;;;;;;;;;;;;;;5030215;28;19928;-42
2023/09/17 10:43:35;;;;;;;;;;;;;;;;;;5049364;28;19908;-42
2023/09/17 10:46:01;;;;;;;;;;;;;;;;;;5048818;28;19908;-42
2023/09/17 10:48:27;;;;;;;;;;;;;;;;;;5049339;28;20341;-42
2023/09/17 10:50:53;;;;;;;;;;;;;;;;;;5048345;28;20325;-43
2023/09/17 10:53:19;;;;;;;;;;;;;;;;;;5049125;28;19909;-43
2023/09/17 10:55:45;;;;;;;;;;;;;;;;;;5049078;28;20003;-43
2023/09/17 10:58:10;;;;;;;;;;;;;;;;;;5049043;28;19919;-43
2023/09/17 11:00:37;;;;;;;;;;;;;;;;;;5048684;28;20043;-43
2023/09/17 11:03:03;;;;;;;;;;;;;;;;;;5049172;28;20429;-43
2023/09/17 11:05:29;;;;;;;;;;;;;;;;;;5046765;28;19909;-42
2023/09/17 11:07:55;;;;;;;;;;;;;;;;;;5048090;28;19909;-42
2023/09/17 11:10:21;;;;;;;;;;;;;;;;;;5044990;28;19963;-43
2023/09/17 11:12:47;;;;;;;;;;;;;;;;;;5042002;28;19952;-42
2023/09/17 11:15:13;;;;;;;;;;;;;;;;;;5042619;28;19916;-43
2023/09/17 11:17:40;;;;;;;;;;;;;;;;;;5044652;28;20015;-42
2023/09/17 11:20:07;;;;;;;;;;;;;;;;;;5027723;28;20286;-42
2023/09/17 11:22:33;;;;;;;;;;;;;;;;;;5048435;28;19913;-43
2023/09/17 11:24:59;;;;;;;;;;;;;;;;;;5047816;28;20007;-43
2023/09/17 11:27:25;;;;;;;;;;;;;;;;;;5046435;28;19958;-43
2023/09/17 11:29:51;;;;;;;;;;;;;;;;;;5028379;28;19916;-43
2023/09/17 11:32:16;;;;;;;;;;;;;;;;;;5045854;28;19960;-43
2023/09/17 11:34:42;;;;;;;;;;;;;;;;;;5031095;28;20292;-42
2023/09/17 11:37:08;;;;;;;;;;;;;;;;;;5046697;28;19913;-42
2023/09/17 11:39:35;;;;;;;;;;;;;;;;;;5043106;28;19920;-42
2023/09/17 11:42:05;;;;;;;;;;;;;;;;;;5046016;28;19917;-43
2023/09/17 11:44:31;;;;;;;;;;;;;;;;;;5049164;28;19912;-43
2023/09/17 11:46:57;;;;;;;;;;;;;;;;;;5046833;28;19939;-42
2023/09/17 11:49:23;;;;;;;;;;;;;;;;;;5045588;28;19913;-42
2023/09/17 11:51:49;;;;;;;;;;;;;;;;;;5046711;28;19999;-44
2023/09/17 11:54:16;;;;;;;;;;;;;;;;;;5047028;28;20450;-42
2023/09/17 11:56:41;;;;;;;;;;;;;;;;;;5048930;28;20311;-43
2023/09/17 11:59:08;;;;;;;;;;;;;;;;;;5044828;28;19912;-43
2023/09/17 12:01:34;;;;;;;;;;;;;;;;;;5044436;28;19920;-42
2023/09/17 12:04:01;;;;;;;;;;;;;;;;;;5026809;28;19912;-44
2023/09/17 12:06:27;;;;;;;;;;;;;;;;;;5046991;28;19916;-43
2023/09/17 12:08:53;;;;;;;;;;;;;;;;;;5048884;28;19915;-43
2023/09/17 12:11:22;;;;;;;;;;;;;;;;;;5044374;28;19928;-43
2023/09/17 12:13:53;;;;;;;;;;;;;;;;;;5046719;28;19956;-43
2023/09/17 12:16:18;;;;;;;;;;;;;;;;;;5028442;28;19924;-43
2023/09/17 12:18:44;;;;;;;;;;;;;;;;;;5044170;28;19913;-43
2023/09/17 12:21:10;;;;;;;;;;;;;;;;;;5046135;28;19913;-43
2023/09/17 12:23:41;;;;;;;;;;;;;;;;;;5045585;28;19956;-42
2023/09/17 12:26:07;;;;;;;;;;;;;;;;;;5043871;28;19916;-43
2023/09/17 12:28:33;;;;;;;;;;;;;;;;;;5028307;28;19917;-43
2023/09/17 12:30:59;;;;;;;;;;;;;;;;;;5045839;28;20405;-43
2023/09/17 12:33:25;;;;;;;;;;;;;;;;;;5048539;28;19913;-43
2023/09/17 12:35:51;;;;;;;;;;;;;;;;;;5045240;28;20387;-43
2023/09/17 12:38:17;;;;;;;;;;;;;;;;;;5043657;28;19968;-43
2023/09/17 12:40:43;;;;;;;;;;;;;;;;;;5047899;28;19931;-44
2023/09/17 12:43:09;;;;;;;;;;;;;;;;;;5040725;28;19909;-44
2023/09/17 12:45:34;;;;;;;;;;;;;;;;;;5068228;28;19912;-44
2023/09/17 12:48:00;;;;;;;;;;;;;;;;;;5052440;28;19913;-43
2023/09/17 12:50:26;;;;;;;;;;;;;;;;;;5041806;28;19909;-43
2023/09/17 12:52:52;;;;;;;;;;;;;;;;;;5022092;28;19920;-43
2023/09/17 12:55:18;;;;;;;;;;;;;;;;;;5038610;28;19924;-42
2023/09/17 12:57:44;;;;;;;;;;;;;;;;;;5027555;28;19912;-43
2023/09/17 13:00:10;;;;;;;;;;;;;;;;;;5030072;28;19909;-43
2023/09/17 13:02:38;;;;;;;;;;;;;;;;;;5042809;28;20280;-43
2023/09/17 13:05:04;;;;;;;;;;;;;;;;;;5044048;28;19917;-43
2023/09/17 13:07:29;;;;;;;;;;;;;;;;;;5029533;28;20376;-43
2023/09/17 13:09:55;;;;;;;;;;;;;;;;;;5030022;28;19912;-43
2023/09/17 13:12:24;;;;;;;;;;;;;;;;;;5046756;28;19917;-44
2023/09/17 13:14:51;;;;;;;;;;;;;;;;;;5048167;28;19948;-43
2023/09/17 13:17:17;;;;;;;;;;;;;;;;;;5050149;28;20397;-44
2023/09/17 13:19:43;;;;;;;;;;;;;;;;;;5045034;28;19917;-43
2023/09/17 13:22:10;;;;;;;;;;;;;;;;;;5047742;28;20011;-43
2023/09/17 13:24:37;;;;;;;;;;;;;;;;;;5024475;28;19952;-43
2023/09/17 13:27:05;;;;;;;;;;;;;;;;;;5022479;28;20028;-44
2023/09/17 13:29:31;;;;;;;;;;;;;;;;;;5043780;28;19921;-43
2023/09/17 13:31:57;;;;;;;;;;;;;;;;;;5041206;28;19913;-43
2023/09/17 13:34:23;;;;;;;;;;;;;;;;;;5042301;28;19917;-43
2023/09/17 13:36:49;;;;;;;;;;;;;;;;;;5047382;28;19991;-45
2023/09/17 13:39:15;;;;;;;;;;;;;;;;;;5044750;28;19944;-44
2023/09/17 13:41:41;;;;;;;;;;;;;;;;;;5047804;28;19999;-43
2023/09/17 13:44:07;;;;;;;;;;;;;;;;;;5045670;28;20427;-44
2023/09/17 13:46:33;;;;;;;;;;;;;;;;;;5046764;28;19936;-44
2023/09/17 13:48:59;;;;;;;;;;;;;;;;;;5048386;28;19914;-43
2023/09/17 13:51:25;;;;;;;;;;;;;;;;;;5063017;28;19939;-43
2023/09/17 13:53:50;;;;;;;;;;;;;;;;;;5068612;28;20264;-44
2023/09/17 13:56:16;;;;;;;;;;;;;;;;;;5068006;28;19960;-44
2023/09/17 13:58:42;;;;;;;;;;;;;;;;;;5050628;28;20385;-44
2023/09/17 14:01:08;;;;;;;;;;;;;;;;;;5068210;28;20347;-43
2023/09/17 14:03:34;;;;;;;;;;;;;;;;;;5053162;28;19955;-43
2023/09/17 14:06:00;;;;;;;;;;;;;;;;;;5030181;28;19913;-44
2023/09/17 14:08:28;;;;;;;;;;;;;;;;;;5047558;28;19963;-43
2023/09/17 14:10:54;;;;;;;;;;;;;;;;;;5048848;28;20338;-43
2023/09/17 14:13:20;;;;;;;;;;;;;;;;;;5047661;28;19908;-43
2023/09/17 14:15:46;;;;;;;;;;;;;;;;;;5029043;28;19913;-44
2023/09/17 14:18:16;;;;;;;;;;;;;;;;;;5044162;28;20210;-43
2023/09/17 14:20:42;;;;;;;;;;;;;;;;;;5047116;28;19970;-43
2023/09/17 14:23:08;;;;;;;;;;;;;;;;;;5043344;28;20369;-43
2023/09/17 14:25:34;;;;;;;;;;;;;;;;;;5026715;28;19917;-45
2023/09/17 14:28:00;;;;;;;;;;;;;;;;;;5046010;28;19921;-49
2023/09/17 14:30:26;;;;;;;;;;;;;;;;;;5042820;28;19913;-51
2023/09/17 14:32:54;;;;;;;;;;;;;;;;;;5025924;28;20374;-51
2023/09/17 14:35:19;;;;;;;;;;;;;;;;;;5046255;28;20015;-45
2023/09/17 14:37:45;;;;;;;;;;;;;;;;;;5026002;28;20031;-43
2023/09/17 14:40:11;;;;;;;;;;;;;;;;;;5034465;28;19934;-45
2023/09/17 14:42:37;;;;;;;;;;;;;;;;;;5063046;28;19909;-43
2023/09/17 14:45:03;;;;;;;;;;;;;;;;;;5048032;28;19912;-44
2023/09/17 14:47:29;;;;;;;;;;;;;;;;;;5046219;28;20418;-45
2023/09/17 14:49:55;;;;;;;;;;;;;;;;;;5058299;28;19915;-43
2023/09/17 14:52:21;;;;;;;;;;;;;;;;;;5067054;28;20401;-44
2023/09/17 14:54:47;;;;;;;;;;;;;;;;;;5059139;28;19919;-43
2023/09/17 14:57:13;;;;;;;;;;;;;;;;;;5047566;28;19908;-42
2023/09/17 14:59:38;;;;;;;;;;;;;;;;;;5042118;28;19920;-43
2023/09/17 15:02:04;;;;;;;;;;;;;;;;;;5046333;28;19913;-44
2023/09/17 15:04:31;;;;;;;;;;;;;;;;;;5054263;28;19963;-45
2023/09/17 15:06:57;;;;;;;;;;;;;;;;;;5047982;28;19909;-43
2023/09/17 15:09:23;;;;;;;;;;;;;;;;;;5047182;28;19909;-43
2023/09/17 15:11:49;;;;;;;;;;;;;;;;;;5036153;28;19909;-43
2023/09/17 15:14:14;;;;;;;;;;;;;;;;;;5029264;28;20164;-43
2023/09/17 15:16:40;;;;;;;;;;;;;;;;;;5044007;28;19978;-44
2023/09/17 15:19:06;;;;;;;;;;;;;;;;;;5047146;28;19956;-44
2023/09/17 15:21:32;;;;;;;;;;;;;;;;;;5046845;28;19919;-44
2023/09/17 15:23:59;;;;;;;;;;;;;;;;;;5045940;28;19971;-44
2023/09/17 15:26:26;;;;;;;;;;;;;;;;;;5045160;28;19960;-43
2023/09/17 15:28:52;;;;;;;;;;;;;;;;;;5047955;28;19916;-44
2023/09/17 15:31:18;;;;;;;;;;;;;;;;;;5045635;28;20299;-43
2023/09/17 15:33:43;;;;;;;;;;;;;;;;;;5045460;28;19954;-43
2023/09/17 15:36:09;;;;;;;;;;;;;;;;;;5036648;28;20288;-43
2023/09/17 15:38:35;;;;;;;;;;;;;;;;;;5043969;28;19912;-44
2023/09/17 15:41:05;;;;;;;;;;;;;;;;;;5047433;28;19952;-44
2023/09/17 15:43:30;;;;;;;;;;;;;;;;;;5029144;28;19916;-43
2023/09/17 15:45:56;;;;;;;;;;;;;;;;;;5047333;28;20480;-43
2023/09/17 15:48:22;;;;;;;;;;;;;;;;;;5046923;28;19920;-43
2023/09/17 15:50:51;;;;;;;;;;;;;;;;;;5046103;28;19913;-42
2023/09/17 15:53:17;;;;;;;;;;;;;;;;;;5060554;28;20017;-43
2023/09/17 15:55:43;;;;;;;;;;;;;;;;;;5053160;28;19971;-42
2023/09/17 15:58:11;;;;;;;;;;;;;;;;;;5049502;28;19913;-44
2023/09/17 16:00:37;;;;;;;;;;;;;;;;;;5047799;28;20276;-45
2023/09/17 16:03:03;;;;;;;;;;;;;;;;;;5049029;28;19920;-42
2023/09/17 16:05:28;;;;;;;;;;;;;;;;;;5051533;28;19967;-43
2023/09/17 16:07:54;;;;;;;;;;;;;;;;;;5070938;28;19915;-43
2023/09/17 16:10:22;;;;;;;;;;;;;;;;;;5058555;28;20569;-43
2023/09/17 16:12:48;;;;;;;;;;;;;;;;;;5046938;28;19912;-42
2023/09/17 16:15:14;;;;;;;;;;;;;;;;;;5047073;28;19923;-43
2023/09/17 16:17:40;;;;;;;;;;;;;;;;;;5049122;28;19923;-42
2023/09/17 16:20:06;;;;;;;;;;;;;;;;;;5044777;28;19936;-43
2023/09/17 16:22:32;;;;;;;;;;;;;;;;;;5047599;28;19957;-42
2023/09/17 16:24:58;;;;;;;;;;;;;;;;;;5045086;28;19920;-42
2023/09/17 16:27:24;;;;;;;;;;;;;;;;;;5046862;28;19912;-43
2023/09/17 16:29:50;;;;;;;;;;;;;;;;;;5046433;28;19941;-42
2023/09/17 16:32:18;;;;;;;;;;;;;;;;;;5044690;28;20945;-43
2023/09/17 16:34:44;;;;;;;;;;;;;;;;;;5051952;28;19916;-42
2023/09/17 16:37:10;;;;;;;;;;;;;;;;;;5048147;28;20368;-43
2023/09/17 16:39:37;;;;;;;;;;;;;;;;;;5048997;28;19909;-43
2023/09/17 16:42:03;;;;;;;;;;;;;;;;;;5047252;28;19908;-43
2023/09/17 16:44:28;;;;;;;;;;;;;;;;;;5046094;28;19912;-44
2023/09/17 16:46:54;;;;;;;;;;;;;;;;;;5044683;28;19913;-42
2023/09/17 16:49:20;;;;;;;;;;;;;;;;;;5044762;28;19928;-43
2023/09/17 16:51:49;;;;;;;;;;;;;;;;;;5043823;28;20315;-42
2023/09/17 16:54:15;;;;;;;;;;;;;;;;;;5046810;28;19916;-44
2023/09/17 16:56:41;;;;;;;;;;;;;;;;;;5047390;28;19935;-44
2023/09/17 16:59:07;;;;;;;;;;;;;;;;;;5045680;28;20019;-43
2023/09/17 17:01:33;;;;;;;;;;;;;;;;;;5046618;28;20390;-42
2023/09/17 17:03:58;;;;;;;;;;;;;;;;;;5026876;28;19913;-41
2023/09/17 17:06:24;;;;;;;;;;;;;;;;;;5046487;28;19909;-42
2023/09/17 17:08:50;;;;;;;;;;;;;;;;;;5044126;28;19967;-42
2023/09/17 17:11:16;;;;;;;;;;;;;;;;;;5046636;28;19913;-43
2023/09/17 17:13:42;;;;;;;;;;;;;;;;;;5044359;28;19913;-43
2023/09/17 17:16:08;;;;;;;;;;;;;;;;;;5046833;28;20005;-43
2023/09/17 17:18:34;;;;;;;;;;;;;;;;;;5047720;28;19916;-43
2023/09/17 17:21:02;;;;;;;;;;;;;;;;;;5047853;28;19915;-43
2023/09/17 17:23:29;;;;;;;;;;;;;;;;;;5045588;28;19966;-43
2023/09/17 17:25:54;;;;;;;;;;;;;;;;;;5045620;28;19944;-44
2023/09/17 17:28:20;;;;;;;;;;;;;;;;;;5045609;28;20435;-43
2023/09/17 17:30:48;;;;;;;;;;;;;;;;;;5028771;28;19916;-43
2023/09/17 17:33:14;;;;;;;;;;;;;;;;;;5044144;28;20431;-42
2023/09/17 17:35:40;;;;;;;;;;;;;;;;;;5046837;28;20026;-42
2023/09/17 17:38:06;;;;;;;;;;;;;;;;;;5047722;28;19909;-41
2023/09/17 17:40:32;;;;;;;;;;;;;;;;;;5045691;28;19912;-42
2023/09/17 17:42:58;;;;;;;;;;;;;;;;;;5027909;28;19920;-43
2023/09/17 17:45:24;;;;;;;;;;;;;;;;;;5046417;28;19913;-43
2023/09/17 17:47:49;;;;;;;;;;;;;;;;;;5042899;28;19991;-43
2023/09/17 17:50:15;;;;;;;;;;;;;;;;;;5029177;28;19958;-42
2023/09/17 17:52:41;;;;;;;;;;;;;;;;;;5046106;28;19921;-42
2023/09/17 17:55:07;;;;;;;;;;;;;;;;;;5045668;28;19917;-42
2023/09/17 17:57:33;;;;;;;;;;;;;;;;;;5045799;28;19913;-43
2023/09/17 18:00:00;;;;;;;;;;;;;;;;;;5046078;28;19913;-42
2023/09/17 18:02:26;;;;;;;;;;;;;;;;;;5029642;28;19913;-43
2023/09/17 18:04:52;;;;;;;;;;;;;;;;;;5034269;28;20614;-42
2023/09/17 18:07:17;;;;;;;;;;;;;;;;;;5043538;28;20047;-42
2023/09/17 18:09:43;;;;;;;;;;;;;;;;;;5045379;28;19913;-42
2023/09/17 18:12:10;;;;;;;;;;;;;;;;;;5043942;28;19913;-42
2023/09/17 18:14:36;;;;;;;;;;;;;;;;;;5046129;28;19917;-42
2023/09/17 18:17:02;;;;;;;;;;;;;;;;;;5044948;28;19917;-42
2023/09/17 18:19:28;;;;;;;;;;;;;;;;;;5042149;28;19917;-42
2023/09/17 18:21:54;;;;;;;;;;;;;;;;;;5043025;28;20464;-42
2023/09/17 18:24:23;;;;;;;;;;;;;;;;;;5044125;28;19963;-42
2023/09/17 18:26:49;;;;;;;;;;;;;;;;;;5028372;28;19913;-42
2023/09/17 18:29:15;;;;;;;;;;;;;;;;;;5042852;28;19912;-42
2023/09/17 18:31:41;;;;;;;;;;;;;;;;;;5046178;28;19916;-43
2023/09/17 18:34:07;;;;;;;;;;;;;;;;;;5047015;28;20291;-42
2023/09/17 18:36:34;;;;;;;;;;;;;;;;;;5046254;28;19913;-41
2023/09/17 18:39:00;;;;;;;;;;;;;;;;;;5044991;28;19920;-42
2023/09/17 18:41:26;;;;;;;;;;;;;;;;;;5046199;28;19912;-42
2023/09/17 18:43:52;;;;;;;;;;;;;;;;;;5044893;28;19917;-41
2023/09/17 18:46:18;;;;;;;;;;;;;;;;;;5041694;28;19939;-41
2023/09/17 18:48:43;;;;;;;;;;;;;;;;;;5041424;28;19912;-41
2023/09/17 18:51:09;;;;;;;;;;;;;;;;;;5043402;28;19920;-42
2023/09/17 18:53:35;;;;;;;;;;;;;;;;;;5042233;28;19919;-41
2023/09/17 18:56:02;;;;;;;;;;;;;;;;;;5045867;28;19974;-41
2023/09/17 18:58:30;;;;;;;;;;;;;;;;;;5046885;28;19913;-41
2023/09/17 19:00:56;;;;;;;;;;;;;;;;;;5048258;28;19916;-42
2023/09/17 19:03:21;;;;;;;;;;;;;;;;;;5045238;28;19913;-42
2023/09/17 19:05:47;;;;;;;;;;;;;;;;;;5046268;28;19913;-41
2023/09/17 19:08:13;;;;;;;;;;;;;;;;;;5047478;28;19913;-42
2023/09/17 19:10:39;;;;;;;;;;;;;;;;;;5046668;28;19912;-41
2023/09/17 19:13:06;;;;;;;;;;;;;;;;;;5045523;28;19913;-42
2023/09/17 19:15:32;;;;;;;;;;;;;;;;;;5045581;28;19920;-42
2023/09/17 19:17:57;;;;;;;;;;;;;;;;;;5047129;28;20410;-42
2023/09/17 19:20:23;;;;;;;;;;;;;;;;;;5045351;28;19919;-41
2023/09/17 19:22:49;;;;;;;;;;;;;;;;;;5046637;28;20431;-52
2023/09/17 19:25:15;;;;;;;;;;;;;;;;;;5046204;28;19913;-49
2023/09/17 19:27:41;;;;;;;;;;;;;;;;;;5045470;28;19917;-50
2023/09/17 19:30:07;;;;;;;;;;;;;;;;;;5028332;28;20410;-50
2023/09/17 19:32:33;;;;;;;;;;;;;;;;;;5046908;28;19942;-49
2023/09/17 19:34:59;;;;;;;;;;;;;;;;;;5046875;28;20007;-49
2023/09/17 19:37:25;;;;;;;;;;;;;;;;;;5051307;28;19913;-51
2023/09/17 19:39:51;;;;;;;;;;;;;;;;;;5047782;28;19921;-51
2023/09/17 19:42:19;;;;;;;;;;;;;;;;;;5049654;28;19917;-50
2023/09/17 19:44:45;;;;;;;;;;;;;;;;;;5049700;28;19920;-49
2023/09/17 19:47:10;;;;;;;;;;;;;;;;;;5048238;28;20384;-52
2023/09/17 19:49:36;;;;;;;;;;;;;;;;;;5050341;28;19920;-51
2023/09/17 19:52:02;;;;;;;;;;;;;;;;;;5049116;28;20393;-50
2023/09/17 19:54:28;;;;;;;;;;;;;;;;;;5033102;28;19955;-52
2023/09/17 19:56:54;;;;;;;;;;;;;;;;;;5032994;28;20371;-49
2023/09/17 19:59:20;;;;;;;;;;;;;;;;;;5049029;28;20697;-53
2023/09/17 20:01:46;;;;;;;;;;;;;;;;;;5057805;28;19912;-50
2023/09/17 20:04:12;;;;;;;;;;;;;;;;;;5070805;28;19908;-50
2023/09/17 20:06:38;;;;;;;;;;;;;;;;;;5055325;28;19919;-52
2023/09/17 20:09:03;;;;;;;;;;;;;;;;;;5050499;28;19909;-50
2023/09/17 20:11:29;;;;;;;;;;;;;;;;;;5050110;28;19913;-51
2023/09/17 20:13:55;;;;;;;;;;;;;;;;;;5049374;28;20314;-50
2023/09/17 20:16:21;;;;;;;;;;;;;;;;;;5049536;28;19924;-49
2023/09/17 20:18:47;;;;;;;;;;;;;;;;;;5050688;28;19913;-53
2023/09/17 20:21:13;;;;;;;;;;;;;;;;;;5050509;28;19967;-50
2023/09/17 20:23:39;;;;;;;;;;;;;;;;;;5048996;28;19915;-52
2023/09/17 20:26:05;;;;;;;;;;;;;;;;;;5049457;28;19995;-48
2023/09/17 20:28:31;;;;;;;;;;;;;;;;;;5050280;28;19912;-49
2023/09/17 20:30:57;;;;;;;;;;;;;;;;;;5050772;28;19913;-52
2023/09/17 20:33:23;;;;;;;;;;;;;;;;;;5049932;28;19909;-51
2023/09/17 20:35:49;;;;;;;;;;;;;;;;;;5050274;28;20280;-52
2023/09/17 20:38:14;;;;;;;;;;;;;;;;;;5048772;28;19916;-54
2023/09/17 20:40:40;;;;;;;;;;;;;;;;;;5049500;28;19917;-48
2023/09/17 20:43:07;;;;;;;;;;;;;;;;;;5049179;28;19908;-51
2023/09/17 20:45:33;;;;;;;;;;;;;;;;;;5049755;28;19958;-50
2023/09/17 20:47:59;;;;;;;;;;;;;;;;;;5047786;28;19909;-52
2023/09/17 20:50:25;;;;;;;;;;;;;;;;;;5049476;28;20326;-53
2023/09/17 20:52:50;;;;;;;;;;;;;;;;;;5049848;28;19913;-50
2023/09/17 20:55:16;;;;;;;;;;;;;;;;;;5049397;28;20283;-53
2023/09/17 20:57:42;;;;;;;;;;;;;;;;;;5030783;28;19947;-49
2023/09/17 21:00:08;;;;;;;;;;;;;;;;;;5030913;28;19920;-51
2023/09/17 21:02:34;;;;;;;;;;;;;;;;;;5046974;28;20042;-52
2023/09/17 21:05:01;;;;;;;;;;;;;;;;;;5050410;28;20379;-51
2023/09/17 21:07:27;;;;;;;;;;;;;;;;;;5024213;28;19917;-50
2023/09/17 21:09:53;;;;;;;;;;;;;;;;;;5039468;28;19940;-53
2023/09/17 21:12:19;;;;;;;;;;;;;;;;;;5048321;28;19909;-51
2023/09/17 21:14:45;;;;;;;;;;;;;;;;;;5049396;28;19939;-49
2023/09/17 21:17:11;;;;;;;;;;;;;;;;;;5030843;28;19924;-50
2023/09/17 21:19:37;;;;;;;;;;;;;;;;;;5030891;28;19940;-49
2023/09/17 21:22:03;;;;;;;;;;;;;;;;;;5049283;28;19947;-52
2023/09/17 21:24:29;;;;;;;;;;;;;;;;;;5049614;28;20474;-51
2023/09/17 21:26:55;;;;;;;;;;;;;;;;;;5047991;28;19947;-52
2023/09/17 21:29:21;;;;;;;;;;;;;;;;;;5030443;28;19963;-52
2023/09/17 21:31:47;;;;;;;;;;;;;;;;;;5047865;28;19912;-51
2023/09/17 21:34:13;;;;;;;;;;;;;;;;;;5066286;28;19909;-52
2023/09/17 21:36:39;;;;;;;;;;;;;;;;;;5048169;28;19913;-51
2023/09/17 21:39:05;;;;;;;;;;;;;;;;;;5049795;28;19909;-52
2023/09/17 21:41:31;;;;;;;;;;;;;;;;;;5048663;28;19917;-51
2023/09/17 21:43:56;;;;;;;;;;;;;;;;;;5049467;28;20476;-51
2023/09/17 21:46:22;;;;;;;;;;;;;;;;;;5049715;28;19913;-50
2023/09/17 21:48:48;;;;;;;;;;;;;;;;;;5049676;28;19909;-50
2023/09/17 21:51:14;;;;;;;;;;;;;;;;;;5049632;28;20459;-51
2023/09/17 21:53:40;;;;;;;;;;;;;;;;;;5049690;28;19908;-50